Chicago, Illinois
Traffic Map
Current Weather Conditions
Chicago, Illinois
Scattered Clouds
Scattered Clouds
12°
Feels Like: 12°
Wind Chill: 12° Ceiling: Unl
Heat Index: 12° Visibility: 10mi
Dew Point: Wind: 9mph
Humidity: 47% Direction: 220° (SW)
Pressure: 30.11in Gusts: 0mph
Raw Report DataKMDW 271953Z 22008KT 200V270 10SM SCT040 12/01 A3011 RMK AO2 SLP200 T01170006
Traffic Incident Summary
Active as of:
Severity:
Category:
InformationThere was an issue retrieving the traffic information for this location. Please try a different location or try again shortly.
Advertisements
Track Severe Weather on mobile